Skip Navigation Links Skip Navigation Links

Current Weather

San Francisco International, San Francisco

For information only: do not use for flight planning or navigation.
Latest weather
Observation time Saturday, July 20, 2019 8:56 AM PDT
Local time Saturday, July 20, 2019 9:12 AM PDT
Flight conditions Visual Meteorological Conditions
Winds
Wind direction South-Southeast (160°)
Wind speed 7 mph
Visibility 10 mi.
Sky condition
Ceiling unlimited
Cloud layer few clouds 1,500 ft.
Cloud layer scattered clouds 2,100 ft.
Temperature 65°F
Dewpoint 52°F
Altimeter 29.95 in.Hg
Derived measurements
Relative humidity 63%
Density altitude 554 ft.
Sea-level pressure 29.95 in.Hg
Remarks
Automated weather observing station with precipitation discriminator.
METAR KSFO 201556Z 16006KT 10SM FEW015 SCT021 18/11 A2995 RMK AO2 SLP143 T01830111

Settings

Location code

InnerDrive.Weather 4.0.6770.0 Release CLR 4.0.30319.42000
Copyright ©2018 Inner Drive Technology. All rights reserved. Portions Copyright ©1986-2018 David Braverman.

Find weather

Site navigation


Skip Navigation Links

Place info

Page info

PayPal - The safer, easier way to pay online!

Return home.

Copyright ©2019 Inner Drive Technology. Purveyors of fine, hand-crafted computer software. Page printed 2019-07-20T16:12:46 UTC.